Flight Track Log - Related Links

Times and Time Zones

All times are in EDT time to prevent confusion due to time zone crossing. See the EGF3681 flight status page for this flight to view local times or setup timezone preferences in your user account.


Time Position Orientation Groundspeed Altitude Reporting Facility
EDT Latitude Longitude Course Direction KTS MPH feet Rate Location/Type
Thu 12:04:44 AM 41.9333 -87.9000 95° East 191 220 2,400  Level Chicago TRACON
Thu 12:05:38 AM 41.8833 -87.8333 135° Southeast 237 273 4,300 1,446 Climbing Chicago TRACON
Thu 12:06:36 AM 41.8433 -87.7803 135° Southeast 241 277 5,100 356 Climbing Chicago Center
Thu 12:07:36 AM 41.7819 -87.7011 136° Southeast 287 330 5,000 -50 Descending Chicago Center
Thu 12:08:37 AM 41.7169 -87.6422 146° Southeast 297 342 5,000  Level Chicago Center
Thu 12:09:38 AM 41.6469 -87.5933 152° Southeast 287 330 5,000  Level Chicago Center
Thu 12:10:00 AM 41.9342 -87.1450 95° East  Level FlightAware Approximate
Thu 12:10:38 AM 41.6292 -87.4872 103° East 297 342 5,000  Level Chicago Center
Thu 12:11:39 AM 41.6194 -87.3819 97° East 290 334 5,000 934 Level Chicago Center
Thu 12:12:40 AM 41.6506 -87.2653 70° East 293 337 6,900 2,182 Climbing Chicago Center
Thu 12:13:40 AM 41.6806 -87.1700 67° East 287 330 9,400 2,182 Climbing Chicago Center
Thu 12:14:41 AM 41.6817 -87.0589 89° East 300 345 11,300 1,820 Climbing Chicago Center
Thu 12:15:42 AM 41.6847 -86.9431 88° East 313 360 13,100 1,721 Climbing Chicago Center
Thu 12:16:43 AM 41.6653 -86.8281 103° East 337 388 14,800 1,835 Climbing Chicago Center
Thu 12:17:43 AM 41.6081 -86.7250 127° Southeast 347 399 16,800 1,537 Climbing Chicago Center
Thu 12:18:44 AM 41.5564 -86.6183 123° Southeast 349 402 17,900 1,033 Climbing Chicago Center
Thu 12:19:45 AM 41.5028 -86.5039 122° Southeast 364 419 18,900 992 Climbing Chicago Center
Thu 12:20:45 AM 41.4461 -86.3836 122° Southeast 382 440 19,900 1,041 Climbing Chicago Center
Thu 12:21:46 AM 41.3867 -86.2594 123° Southeast 398 458 21,000 1,033 Climbing Chicago Center
Thu 12:22:47 AM 41.3258 -86.1339 123° Southeast 405 466 22,000 992 Climbing Chicago Center
Thu 12:23:47 AM 41.2642 -86.0061 123° Southeast 412 474 23,000 496 Climbing Chicago Center
Thu 12:24:48 AM 41.2019 -85.8744 122° Southeast 422 486 23,000  Level Chicago Center
Thu 12:25:48 AM 41.1192 -85.7086 123° Southeast 452 520 23,000  Level Chicago Center
Thu 12:26:49 AM 41.0364 -85.5775 130° Southeast 476 548 23,000  Level Chicago Center
Thu 12:27:50 AM 40.9394 -85.4678 139° Southeast 471 542 23,000  Level Chicago Center
Thu 12:28:50 AM 40.8444 -85.3533 138° Southeast 466 536 23,000 -496 Level Chicago Center
Thu 12:29:51 AM 40.7511 -85.2347 136° Southeast 469 540 22,000 -1,619 Descending Chicago Center
Thu 12:30:56 AM 40.6583 -85.1214 137° Southeast 462 532 19,600 -2,345 Descending Chicago Center
Thu 12:31:41 AM 40.5847 -85.0347 138° Southeast 445 512 17,700 -2,588 Descending Indianapolis Center
Thu 12:32:38 AM 40.4986 -84.9297 137° Southeast 412 474 15,200 -2,564 Descending Indianapolis Center
Thu 12:33:38 AM 40.4169 -84.8314 137° Southeast 391 450 12,700 -2,380 Descending Indianapolis Center
Thu 12:34:39 AM 40.3464 -84.7272 132° Southeast 380 437 10,400 -1,388 Descending Indianapolis Center
Thu 12:35:39 AM 40.2864 -84.6389 132° Southeast 306 352 9,900 -1,041 Descending Indianapolis Center
Thu 12:36:40 AM 40.2319 -84.5603 132° Southeast 282 325 8,300 -1,574 Descending Indianapolis Center
Thu 12:37:41 AM 40.1794 -84.4819 131° Southeast 289 333 6,700 -1,440 Descending Indianapolis Center
Thu 12:38:45 AM 40.1278 -84.4056 131° Southeast 283 326 5,300 -1,344 Descending Indianapolis Center
Thu 12:39:46 AM 40.0731 -84.3350 135° Southeast 278 320 3,900 -1,289 Descending Indianapolis Center
Thu 12:40:46 AM 40.0197 -84.2700 137° Southeast 268 308 2,700 -793 Descending Indianapolis Center
Thu 12:41:47 AM 39.9864 -84.2275 136° Southeast 194 223 2,300 -397 Descending Indianapolis Center
Thu 12:42:47 AM 39.9542 -84.2086 156° South 161 185 1,900 -400 Descending Indianapolis Center

Login

Don't have an account? Register now (free) for customized features, flight alerts, and more!